St Petersburg Clearwater International Airport
KPIE : rendu visible

Aérodrome :











RETROUVEZ-NOUS SUR...

 
LOGIN :

S'inscrire | Disclaimer

   EN    FR    IT 

 









Légende :    VFR   VFR Marginal   IFR   IFR Intensif   IFR Très Intensif
Visi : 
Plafond : 
>= 8 km
>= 3000ft
5 à 8 km
1000 à 3000 ft
1500m à 5 km
500 à 1000 ft
800 à 1500m
200 à 500 ft
< 800m
< 200 ft
Symboles :   Orages  Brouillard  Fortes neiges  Fortes précipitations  Vent > 20 kt







- Altitude de l'aérodrome : 11 ft
- Code IATA : PIE


KPIE - St Petersburg Clearwater International

DERNIER METAR :
  • 241853Z 01005KT 10SM CLR 28/14 A3003 RMK AO2 SLP167 T02830144 PNO

METARs EXPIRÉS :
  • 241753Z 36003KT 10SM CLR 27/14 A3005 RMK AO2 SLP174 6//// T02720139 10278 20183 56015 PNO
  • 241653Z 06007KT 10SM CLR 26/15 A3006 RMK AO2 SLP179 T02560150 PNO $

TAF KPIE
Valide du 24 à 18h jusqu'au 25 à 18h UTC


241720Z 2418/2518 05007KT P6SM FEW250
FM242000 29010KT P6SM FEW060 SCT250
FM250200 VRB03KT P6SM BKN250
FM251400 17009KT P6SM SCT030 BKN250
FIR KZMA / Amérique du Nord



MET'MAP, la Météo Aéronautique d'un coup d'oeil ! - Copyright ORBIFLY Décembre 2007 - Disclaimer

ORBIFLY MET'MAP TEAM :

Programmation & Développement : Alexandra Zaïnal
Conception & Développement : Baudouin d'Aumeries
Co-Programmation & Développement : Marc-Olivier Méhu
Soutien technique & logistique : Manuel Goepfert

Contact : metmap@orbifly.com




SOURCES & CREDITS :

   NOAA       Earth
Advisory